Time;durP1;ratioP1;P1;durP2;ratioP2;P2;SDS_P1;SDS_P2;PMS_P1;PMS_P2;Temp;Humidity;BMP_temperature;BMP_pressure;BME280_temperature;BME280_humidity;BME280_pressure;Samples;Min_cycle;Max_cycle;Signal;HPM_P1;HPM_P2
2023/09/04 00:01:56;;;;;;;4.22;3.80;;;;;;;;;;5014587;28;20228;-74
2023/09/04 00:04:24;;;;;;;5.68;4.80;;;;;;;;;;5017858;28;20226;-74
2023/09/04 00:06:51;;;;;;;5.40;4.90;;;;;;;;;;5024735;28;20226;-75
2023/09/04 00:09:18;;;;;;;9.93;7.95;;;;;;;;;;5021869;28;20214;-75
2023/09/04 00:11:46;;;;;;;5.53;4.60;;;;;;;;;;5023366;28;20743;-75
2023/09/04 00:14:15;;;;;;;9.07;6.65;;;;;;;;;;5020288;28;20543;-75
2023/09/04 00:16:43;;;;;;;7.15;5.00;;;;;;;;;;5019397;28;20232;-74
2023/09/04 00:19:10;;;;;;;4.47;4.07;;;;;;;;;;5015504;28;20558;-74
2023/09/04 00:21:38;;;;;;;4.32;3.92;;;;;;;;;;5017145;28;20317;-75
2023/09/04 00:24:05;;;;;;;3.70;3.40;;;;;;;;;;5016646;28;20206;-74
2023/09/04 00:26:33;;;;;;;6.07;3.67;;;;;;;;;;5019193;28;20207;-73
2023/09/04 00:29:00;;;;;;;3.78;3.40;;;;;;;;;;5015070;28;20230;-73
2023/09/04 00:31:27;;;;;;;3.90;3.60;;;;;;;;;;5014024;28;20262;-75
2023/09/04 00:33:55;;;;;;;4.03;3.72;;;;;;;;;;5021943;28;20494;-74
2023/09/04 00:36:22;;;;;;;3.83;3.50;;;;;;;;;;5017125;28;20230;-74
2023/09/04 00:38:49;;;;;;;4.25;3.72;;;;;;;;;;5019718;28;20203;-75
2023/09/04 00:41:19;;;;;;;3.65;3.40;;;;;;;;;;5026370;28;20232;-74
2023/09/04 00:43:46;;;;;;;4.05;3.65;;;;;;;;;;5017267;28;20223;-73
2023/09/04 00:46:14;;;;;;;3.60;3.40;;;;;;;;;;5020896;28;20206;-71
2023/09/04 00:48:42;;;;;;;4.25;3.95;;;;;;;;;;5010593;28;20207;-72
2023/09/04 00:51:09;;;;;;;4.70;4.30;;;;;;;;;;5027035;28;20228;-70
2023/09/04 00:53:37;;;;;;;3.95;3.65;;;;;;;;;;5020718;28;20203;-71
2023/09/04 00:56:05;;;;;;;4.85;4.32;;;;;;;;;;5019320;28;20219;-72
2023/09/04 00:58:33;;;;;;;3.67;3.30;;;;;;;;;;5020913;28;20553;-69
2023/09/04 01:01:04;;;;;;;8.77;4.97;;;;;;;;;;5020150;28;20226;-72
2023/09/04 01:03:31;;;;;;;4.65;4.20;;;;;;;;;;5010429;28;20207;-71
2023/09/04 01:05:59;;;;;;;4.72;4.32;;;;;;;;;;5022746;28;20736;-71
2023/09/04 01:08:26;;;;;;;5.03;4.53;;;;;;;;;;5033223;28;20215;-71
2023/09/04 01:11:12;;;;;;;5.32;4.13;;;;;;;;;;5024704;28;20318;-71
2023/09/04 01:13:44;;;;;;;3.53;3.25;;;;;;;;;;5026890;28;20784;-71
2023/09/04 01:16:12;;;;;;;4.10;3.65;;;;;;;;;;5027945;28;20651;-71
2023/09/04 01:18:40;;;;;;;5.20;3.83;;;;;;;;;;5021546;28;20665;-71
2023/09/04 01:21:09;;;;;;;4.00;3.70;;;;;;;;;;5017849;28;20712;-70
2023/09/04 01:23:37;;;;;;;3.88;3.58;;;;;;;;;;5020190;28;20199;-72
2023/09/04 01:26:04;;;;;;;5.18;4.78;;;;;;;;;;5015054;28;20210;-72
2023/09/04 01:28:55;;;;;;;5.03;4.63;;;;;;;;;;5024607;28;20211;-71
2023/09/04 01:31:27;;;;;;;4.72;4.28;;;;;;;;;;5018156;28;20223;-72
2023/09/04 01:34:21;;;;;;;4.13;3.83;;;;;;;;;;5042244;28;20284;-71
2023/09/04 01:36:52;;;;;;;3.60;3.30;;;;;;;;;;5025400;28;20258;-72
2023/09/04 01:39:21;;;;;;;4.25;3.90;;;;;;;;;;5039794;28;20214;-71
2023/09/04 01:41:48;;;;;;;4.00;3.70;;;;;;;;;;5015715;28;20293;-71
2023/09/04 01:44:16;;;;;;;3.80;3.50;;;;;;;;;;5023251;28;20202;-71
2023/09/04 01:46:44;;;;;;;4.22;3.88;;;;;;;;;;5017999;28;20669;-71
2023/09/04 01:49:14;;;;;;;4.10;3.80;;;;;;;;;;5027837;28;20238;-71
2023/09/04 01:51:41;;;;;;;4.78;4.38;;;;;;;;;;5019246;28;20226;-72
2023/09/04 01:54:12;;;;;;;6.63;5.80;;;;;;;;;;5017322;28;20219;-71
2023/09/04 01:56:39;;;;;;;6.43;5.82;;;;;;;;;;5028313;28;20218;-71
2023/09/04 01:59:06;;;;;;;9.23;8.40;;;;;;;;;;5016231;28;20203;-72
2023/09/04 02:01:36;;;;;;;12.38;11.18;;;;;;;;;;5018784;28;20251;-71
2023/09/04 02:04:05;;;;;;;10.02;9.13;;;;;;;;;;5017617;28;20239;-72
2023/09/04 02:06:32;;;;;;;5.53;4.97;;;;;;;;;;5021434;28;20675;-72
2023/09/04 02:08:59;;;;;;;4.70;4.30;;;;;;;;;;5020455;28;20290;-70
2023/09/04 02:11:27;;;;;;;4.80;4.40;;;;;;;;;;5019818;28;20223;-70
2023/09/04 02:13:54;;;;;;;4.90;4.40;;;;;;;;;;5022224;28;20214;-71
2023/09/04 02:16:24;;;;;;;6.13;5.53;;;;;;;;;;5017010;28;20226;-71
2023/09/04 02:18:51;;;;;;;8.82;7.90;;;;;;;;;;5020518;28;20675;-71
2023/09/04 02:21:20;;;;;;;6.30;5.65;;;;;;;;;;5016196;28;20227;-71
2023/09/04 02:23:48;;;;;;;5.03;4.63;;;;;;;;;;5020752;28;20673;-72
2023/09/04 02:26:18;;;;;;;6.03;5.43;;;;;;;;;;5021919;28;20221;-71
2023/09/04 02:28:45;;;;;;;6.82;5.57;;;;;;;;;;5024288;28;20212;-72
2023/09/04 02:31:12;;;;;;;5.60;5.10;;;;;;;;;;5014614;28;20649;-71
2023/09/04 02:33:39;;;;;;;5.32;4.82;;;;;;;;;;5019198;28;20199;-71
2023/09/04 02:36:07;;;;;;;5.82;5.20;;;;;;;;;;5022453;28;20272;-71
2023/09/04 02:38:35;;;;;;;5.78;5.20;;;;;;;;;;5017967;28;20207;-70
2023/09/04 02:41:02;;;;;;;5.53;5.05;;;;;;;;;;5021960;28;20223;-71
2023/09/04 02:43:29;;;;;;;5.28;4.78;;;;;;;;;;5019712;28;20722;-71
2023/09/04 02:45:58;;;;;;;5.88;4.90;;;;;;;;;;5020412;28;20646;-72
2023/09/04 02:48:25;;;;;;;6.25;4.85;;;;;;;;;;5021044;28;20589;-71
2023/09/04 02:50:59;;;;;;;5.43;4.93;;;;;;;;;;5030346;28;20239;-71
2023/09/04 02:53:27;;;;;;;4.85;4.35;;;;;;;;;;5017069;28;20215;-70
2023/09/04 02:55:57;;;;;;;5.32;4.82;;;;;;;;;;5014043;28;20237;-71
2023/09/04 02:58:24;;;;;;;5.15;4.75;;;;;;;;;;5022816;28;20203;-71
2023/09/04 03:00:52;;;;;;;4.70;4.30;;;;;;;;;;5018844;28;20253;-72
2023/09/04 03:03:20;;;;;;;5.07;4.60;;;;;;;;;;5021630;28;20246;-72
2023/09/04 03:05:47;;;;;;;5.28;4.78;;;;;;;;;;5021022;28;20653;-72
2023/09/04 03:08:14;;;;;;;5.00;4.60;;;;;;;;;;5013744;28;20211;-71
2023/09/04 03:10:42;;;;;;;5.13;4.63;;;;;;;;;;5016214;28;20223;-71
2023/09/04 03:13:11;;;;;;;4.82;4.43;;;;;;;;;;5033592;28;20656;-70
2023/09/04 03:15:38;;;;;;;5.03;4.63;;;;;;;;;;5017327;28;20214;-72
2023/09/04 03:18:09;;;;;;;5.20;4.70;;;;;;;;;;5016112;28;20633;-72
2023/09/04 03:20:36;;;;;;;5.75;5.25;;;;;;;;;;5012396;28;20310;-70
2023/09/04 03:23:04;;;;;;;5.72;4.90;;;;;;;;;;5025525;28;20203;-72
2023/09/04 03:25:32;;;;;;;6.05;5.07;;;;;;;;;;5020486;28;20215;-72
2023/09/04 03:27:59;;;;;;;5.20;4.80;;;;;;;;;;5037939;28;20206;-72
2023/09/04 03:30:28;;;;;;;6.65;5.53;;;;;;;;;;5022392;28;20786;-71
2023/09/04 03:32:55;;;;;;;5.53;5.03;;;;;;;;;;5022464;28;20256;-71
2023/09/04 03:35:23;;;;;;;6.50;5.90;;;;;;;;;;5020919;28;20230;-70
2023/09/04 03:37:55;;;;;;;5.63;5.05;;;;;;;;;;5019993;28;20226;-71
2023/09/04 03:40:23;;;;;;;6.65;5.70;;;;;;;;;;5016027;28;20269;-71
2023/09/04 03:42:51;;;;;;;37.70;23.75;;;;;;;;;;5018739;28;20199;-71
2023/09/04 03:45:18;;;;;;;16.33;11.32;;;;;;;;;;5016076;28;20200;-72
2023/09/04 03:47:46;;;;;;;7.07;6.40;;;;;;;;;;5018289;28;20707;-71
2023/09/04 03:50:14;;;;;;;7.00;6.13;;;;;;;;;;5018618;28;20657;-72
2023/09/04 03:52:43;;;;;;;6.97;6.28;;;;;;;;;;5040923;28;20305;-72
2023/09/04 03:55:11;;;;;;;7.80;6.20;;;;;;;;;;5020420;28;20207;-71
2023/09/04 03:57:39;;;;;;;6.32;5.75;;;;;;;;;;5024253;28;20242;-71
2023/09/04 04:00:14;;;;;;;6.82;6.13;;;;;;;;;;5021188;28;20334;-70
2023/09/04 04:02:42;;;;;;;6.80;6.10;;;;;;;;;;5016913;28;20202;-71
2023/09/04 04:05:11;;;;;;;6.05;5.55;;;;;;;;;;5019097;28;20195;-72
2023/09/04 04:07:39;;;;;;;7.07;6.30;;;;;;;;;;5016984;28;20588;-71
2023/09/04 04:10:09;;;;;;;7.28;6.57;;;;;;;;;;5041044;28;20290;-71
2023/09/04 04:12:37;;;;;;;6.95;6.25;;;;;;;;;;5023018;28;20264;-71
2023/09/04 04:15:06;;;;;;;6.47;5.88;;;;;;;;;;5015849;28;20225;-71
2023/09/04 04:17:34;;;;;;;6.20;5.60;;;;;;;;;;5024896;28;20235;-71
2023/09/04 04:20:06;;;;;;;6.53;5.90;;;;;;;;;;5020108;28;20225;-71
2023/09/04 04:22:34;;;;;;;5.93;5.43;;;;;;;;;;5018857;28;20200;-71
2023/09/04 04:25:01;;;;;;;6.15;5.65;;;;;;;;;;5035337;28;20199;-71
2023/09/04 04:27:28;;;;;;;6.53;5.93;;;;;;;;;;5016729;28;20209;-70
2023/09/04 04:29:56;;;;;;;5.85;5.28;;;;;;;;;;5020750;28;20606;-72
2023/09/04 04:32:23;;;;;;;6.53;5.90;;;;;;;;;;5023882;28;20731;-72
2023/09/04 04:34:50;;;;;;;6.45;5.85;;;;;;;;;;5026682;28;20313;-73
2023/09/04 04:37:18;;;;;;;6.15;5.65;;;;;;;;;;5022521;28;20612;-71
2023/09/04 04:39:45;;;;;;;6.80;6.10;;;;;;;;;;5017981;28;20281;-72
2023/09/04 04:42:12;;;;;;;6.65;6.00;;;;;;;;;;5009135;28;20302;-70
2023/09/04 04:44:40;;;;;;;7.18;6.25;;;;;;;;;;5024791;28;20604;-71
2023/09/04 04:47:07;;;;;;;6.57;5.97;;;;;;;;;;5024963;28;20210;-72
2023/09/04 04:49:34;;;;;;;6.47;5.88;;;;;;;;;;5020950;28;20270;-71
2023/09/04 04:52:02;;;;;;;6.68;6.07;;;;;;;;;;5014976;28;20231;-71
2023/09/04 04:54:29;;;;;;;6.93;6.22;;;;;;;;;;5019395;28;20620;-72
2023/09/04 04:56:56;;;;;;;5.85;5.30;;;;;;;;;;5022208;28;20592;-71
2023/09/04 04:59:23;;;;;;;7.03;6.32;;;;;;;;;;5033152;28;20260;-71
2023/09/04 05:01:51;;;;;;;6.65;6.05;;;;;;;;;;5020114;28;20261;-70
2023/09/04 05:04:18;;;;;;;7.68;6.93;;;;;;;;;;5020020;28;20210;-71
2023/09/04 05:06:46;;;;;;;7.05;6.35;;;;;;;;;;5019973;28;20203;-71
2023/09/04 05:09:13;;;;;;;7.28;6.57;;;;;;;;;;5020481;28;20371;-71
2023/09/04 05:11:40;;;;;;;7.10;6.50;;;;;;;;;;5019624;28;20227;-71
2023/09/04 05:14:08;;;;;;;8.43;7.13;;;;;;;;;;5024108;28;20217;-71
2023/09/04 05:16:35;;;;;;;7.47;6.63;;;;;;;;;;5019349;28;20322;-72
2023/09/04 05:19:02;;;;;;;9.55;6.35;;;;;;;;;;5021009;28;20282;-72
2023/09/04 05:21:30;;;;;;;7.20;6.50;;;;;;;;;;5036553;28;21592;-70
2023/09/04 05:24:05;;;;;;;7.30;6.60;;;;;;;;;;5022601;28;20296;-71
2023/09/04 05:26:33;;;;;;;7.55;6.85;;;;;;;;;;5025180;28;21290;-72
2023/09/04 05:29:00;;;;;;;7.18;6.47;;;;;;;;;;5021558;28;20210;-71
2023/09/04 05:31:27;;;;;;;7.75;6.97;;;;;;;;;;5022911;28;20249;-71
2023/09/04 05:33:54;;;;;;;7.32;6.72;;;;;;;;;;5023302;28;20207;-71
2023/09/04 05:36:22;;;;;;;11.23;9.55;;;;;;;;;;5017627;28;20274;-71
2023/09/04 05:38:49;;;;;;;7.95;6.97;;;;;;;;;;5015151;28;20219;-71
2023/09/04 05:41:16;;;;;;;7.63;6.95;;;;;;;;;;5019443;28;20227;-71
2023/09/04 05:43:44;;;;;;;8.02;6.10;;;;;;;;;;5019030;28;20212;-70
2023/09/04 05:46:11;;;;;;;6.82;6.13;;;;;;;;;;5018000;28;20207;-71
2023/09/04 05:48:38;;;;;;;6.38;5.78;;;;;;;;;;5035898;28;20269;-74
2023/09/04 05:51:06;;;;;;;6.63;6.03;;;;;;;;;;5023925;28;20594;-74
2023/09/04 05:53:33;;;;;;;6.88;6.18;;;;;;;;;;5022825;28;20912;-74
2023/09/04 05:56:04;;;;;;;6.53;5.93;;;;;;;;;;5019429;28;20200;-74
2023/09/04 05:58:31;;;;;;;7.22;6.50;;;;;;;;;;5018329;28;20227;-74
2023/09/04 06:00:58;;;;;;;7.28;6.15;;;;;;;;;;5024353;28;20218;-76
2023/09/04 06:03:26;;;;;;;6.88;6.28;;;;;;;;;;5018164;28;20266;-73
2023/09/04 06:05:54;;;;;;;6.80;6.15;;;;;;;;;;5020454;28;20229;-74
2023/09/04 06:08:21;;;;;;;6.43;5.72;;;;;;;;;;5020696;28;20207;-74
2023/09/04 06:10:49;;;;;;;5.82;5.38;;;;;;;;;;5022842;28;20759;-74
2023/09/04 06:13:17;;;;;;;7.20;6.60;;;;;;;;;;5017808;28;20226;-73
2023/09/04 06:15:44;;;;;;;6.10;5.60;;;;;;;;;;5020341;28;20268;-74
2023/09/04 06:18:12;;;;;;;6.35;5.80;;;;;;;;;;5018373;28;20230;-74
2023/09/04 06:20:39;;;;;;;6.40;5.80;;;;;;;;;;5034185;28;20220;-74
2023/09/04 06:23:06;;;;;;;6.53;5.90;;;;;;;;;;5023301;28;20665;-73
2023/09/04 06:25:38;;;;;;;6.20;5.63;;;;;;;;;;5033022;28;20210;-75
2023/09/04 06:28:06;;;;;;;5.95;5.30;;;;;;;;;;5024938;28;20660;-73
2023/09/04 06:30:33;;;;;;;5.82;5.32;;;;;;;;;;5025295;28;20620;-74
2023/09/04 06:33:01;;;;;;;6.70;6.10;;;;;;;;;;5021500;28;20294;-75
2023/09/04 06:35:28;;;;;;;6.05;5.55;;;;;;;;;;5018440;28;20215;-74
2023/09/04 06:37:56;;;;;;;6.30;5.78;;;;;;;;;;5021669;28;20731;-74
2023/09/04 06:40:23;;;;;;;6.38;5.78;;;;;;;;;;5024595;28;20231;-73
2023/09/04 06:42:53;;;;;;;6.35;5.82;;;;;;;;;;5019929;28;20286;-74
2023/09/04 06:45:20;;;;;;;5.93;5.43;;;;;;;;;;5020280;28;20683;-74
2023/09/04 06:47:50;;;;;;;7.57;5.68;;;;;;;;;;5037584;28;20203;-75
2023/09/04 06:50:17;;;;;;;5.68;5.18;;;;;;;;;;5018851;28;20218;-73
2023/09/04 06:52:45;;;;;;;6.22;5.63;;;;;;;;;;5025730;28;20649;-74
2023/09/04 06:55:12;;;;;;;5.78;5.32;;;;;;;;;;5019375;28;20215;-75
2023/09/04 06:57:39;;;;;;;6.35;5.72;;;;;;;;;;5020500;28;20230;-73
2023/09/04 07:00:08;;;;;;;5.95;5.45;;;;;;;;;;5024437;28;20615;-74
2023/09/04 07:02:36;;;;;;;5.07;4.68;;;;;;;;;;5018837;28;20195;-74
2023/09/04 07:05:05;;;;;;;5.43;4.93;;;;;;;;;;5021284;28;20227;-74
2023/09/04 07:07:35;;;;;;;5.60;5.10;;;;;;;;;;5015992;28;20210;-74
2023/09/04 07:10:06;;;;;;;5.47;4.97;;;;;;;;;;5019341;28;20222;-74
2023/09/04 07:12:36;;;;;;;5.30;4.90;;;;;;;;;;5017606;28;20963;-74
2023/09/04 07:15:04;;;;;;;5.35;4.88;;;;;;;;;;5022045;28;20672;-73
2023/09/04 07:17:31;;;;;;;5.43;4.75;;;;;;;;;;5034552;28;20708;-74
2023/09/04 07:19:59;;;;;;;5.90;4.43;;;;;;;;;;5027899;28;20199;-74
2023/09/04 07:22:26;;;;;;;5.32;4.82;;;;;;;;;;5021967;28;20256;-73
2023/09/04 07:24:53;;;;;;;5.07;4.68;;;;;;;;;;5020058;28;20257;-73
2023/09/04 07:27:21;;;;;;;5.15;4.75;;;;;;;;;;5020215;28;20214;-73
2023/09/04 07:29:48;;;;;;;5.07;4.57;;;;;;;;;;5018086;28;20213;-73
2023/09/04 07:32:15;;;;;;;4.80;4.40;;;;;;;;;;5039914;28;20300;-71
2023/09/04 07:34:42;;;;;;;5.13;4.10;;;;;;;;;;5034054;28;20207;-74
2023/09/04 07:37:10;;;;;;;4.75;4.35;;;;;;;;;;5016606;28;20225;-74
2023/09/04 07:39:37;;;;;;;4.88;4.53;;;;;;;;;;5017758;28;20203;-74
2023/09/04 07:42:05;;;;;;;5.03;4.53;;;;;;;;;;5019755;28;20230;-74
2023/09/04 07:44:32;;;;;;;4.65;4.35;;;;;;;;;;5017600;28;20209;-72
2023/09/04 07:47:00;;;;;;;4.93;4.53;;;;;;;;;;5020320;28;20199;-74
2023/09/04 07:49:27;;;;;;;5.10;4.70;;;;;;;;;;5020385;28;20204;-73
2023/09/04 07:51:54;;;;;;;4.88;4.50;;;;;;;;;;5021657;28;20218;-74
2023/09/04 07:54:21;;;;;;;5.13;4.72;;;;;;;;;;5022767;28;20643;-74
2023/09/04 07:56:49;;;;;;;5.05;4.53;;;;;;;;;;5019784;28;20199;-75
2023/09/04 07:59:16;;;;;;;4.50;4.20;;;;;;;;;;5017703;28;20261;-73
2023/09/04 08:01:43;;;;;;;4.47;4.07;;;;;;;;;;5022761;28;20727;-74
2023/09/04 08:04:11;;;;;;;4.75;4.28;;;;;;;;;;5037947;28;20203;-75
2023/09/04 08:06:38;;;;;;;4.72;4.32;;;;;;;;;;5034897;28;20210;-73
2023/09/04 08:09:06;;;;;;;4.75;4.35;;;;;;;;;;5024333;28;20229;-73
2023/09/04 08:11:33;;;;;;;5.35;4.25;;;;;;;;;;5029522;28;20230;-73
2023/09/04 08:14:00;;;;;;;4.38;3.88;;;;;;;;;;5033026;28;20219;-72
2023/09/04 08:16:27;;;;;;;4.10;3.80;;;;;;;;;;5016033;28;20203;-73
2023/09/04 08:18:55;;;;;;;8.27;4.30;;;;;;;;;;5017671;28;20222;-74
2023/09/04 08:21:22;;;;;;;3.92;3.63;;;;;;;;;;5021606;28;20227;-73
2023/09/04 08:23:49;;;;;;;4.38;4.03;;;;;;;;;;5015260;28;20207;-75
2023/09/04 08:26:16;;;;;;;4.45;4.05;;;;;;;;;;5013077;28;20215;-73
2023/09/04 08:28:44;;;;;;;4.15;3.75;;;;;;;;;;5019251;28;20622;-73
2023/09/04 08:31:13;;;;;;;4.07;3.75;;;;;;;;;;5036923;28;20230;-73
2023/09/04 08:33:40;;;;;;;4.10;3.80;;;;;;;;;;5023556;28;20211;-74
2023/09/04 08:36:07;;;;;;;5.03;3.80;;;;;;;;;;5023962;28;20203;-75
2023/09/04 08:38:34;;;;;;;4.05;3.75;;;;;;;;;;5013341;28;20226;-75
2023/09/04 08:41:05;;;;;;;3.95;3.65;;;;;;;;;;5021527;28;20317;-73
2023/09/04 08:43:33;;;;;;;4.20;3.80;;;;;;;;;;5021521;28;20204;-75
2023/09/04 08:46:02;;;;;;;4.10;3.50;;;;;;;;;;5037641;28;20199;-73
2023/09/04 08:48:35;;;;;;;3.72;3.42;;;;;;;;;;5019655;28;20694;-73
2023/09/04 08:51:02;;;;;;;3.95;3.65;;;;;;;;;;5022833;28;20260;-74
2023/09/04 08:53:30;;;;;;;3.30;3.10;;;;;;;;;;5034677;28;20878;-74
2023/09/04 08:55:58;;;;;;;4.10;3.22;;;;;;;;;;5027644;28;20238;-73
2023/09/04 08:58:26;;;;;;;3.20;2.92;;;;;;;;;;5017536;28;20233;-75
2023/09/04 09:00:54;;;;;;;2.75;2.60;;;;;;;;;;5023118;28;20233;-74
2023/09/04 09:03:22;;;;;;;3.28;2.97;;;;;;;;;;5022035;28;20245;-75
2023/09/04 09:05:50;;;;;;;3.00;2.80;;;;;;;;;;5015196;28;20295;-73
2023/09/04 09:08:17;;;;;;;3.50;2.85;;;;;;;;;;5019059;28;20219;-73
2023/09/04 09:10:48;;;;;;;3.00;2.80;;;;;;;;;;5017625;28;20233;-73
2023/09/04 09:13:15;;;;;;;3.92;3.47;;;;;;;;;;5022261;28;20710;-73
2023/09/04 09:15:43;;;;;;;3.70;3.08;;;;;;;;;;5014828;28;20200;-73
2023/09/04 09:18:10;;;;;;;3.10;2.90;;;;;;;;;;5017093;28;20296;-73
2023/09/04 09:20:39;;;;;;;3.60;2.90;;;;;;;;;;5013825;28;20721;-74
2023/09/04 09:23:06;;;;;;;3.42;3.13;;;;;;;;;;5029502;28;20196;-74
2023/09/04 09:25:34;;;;;;;3.42;3.13;;;;;;;;;;5010885;28;20207;-75
2023/09/04 09:28:02;;;;;;;3.38;2.83;;;;;;;;;;5018450;28;20214;-73
2023/09/04 09:30:33;;;;;;;2.97;2.78;;;;;;;;;;5035556;28;20231;-74
2023/09/04 09:33:04;;;;;;;4.75;2.70;;;;;;;;;;5018225;28;20211;-73
2023/09/04 09:35:32;;;;;;;3.08;2.80;;;;;;;;;;5031437;28;20544;-74
2023/09/04 09:38:00;;;;;;;2.75;2.55;;;;;;;;;;5018831;28;20223;-75
2023/09/04 09:40:28;;;;;;;2.72;2.50;;;;;;;;;;5020726;28;20688;-73
2023/09/04 09:42:56;;;;;;;2.47;2.35;;;;;;;;;;5018646;28;20429;-74
2023/09/04 09:45:24;;;;;;;2.05;1.95;;;;;;;;;;5020935;28;20580;-74
2023/09/04 09:47:51;;;;;;;3.25;2.28;;;;;;;;;;5025982;28;20206;-74
2023/09/04 09:50:20;;;;;;;2.55;2.35;;;;;;;;;;5022674;28;20235;-75
2023/09/04 09:52:58;;;;;;;3.10;2.22;;;;;;;;;;5032341;28;20212;-73
2023/09/04 09:55:26;;;;;;;2.58;2.38;;;;;;;;;;5022905;28;20661;-74
2023/09/04 09:57:54;;;;;;;2.95;2.20;;;;;;;;;;5019752;28;20572;-73
2023/09/04 10:00:21;;;;;;;2.47;2.28;;;;;;;;;;5029526;28;20227;-74
2023/09/04 10:02:49;;;;;;;5.25;2.67;;;;;;;;;;5018226;28;20203;-73
2023/09/04 10:05:16;;;;;;;2.75;2.50;;;;;;;;;;5020977;28;20215;-73
2023/09/04 10:07:47;;;;;;;2.40;2.20;;;;;;;;;;5022003;28;20203;-73
2023/09/04 10:10:15;;;;;;;2.55;2.35;;;;;;;;;;5022166;28;20215;-74
2023/09/04 10:12:45;;;;;;;2.70;2.50;;;;;;;;;;5021075;28;20203;-74
2023/09/04 10:15:14;;;;;;;2.20;2.10;;;;;;;;;;5022284;28;20606;-73
2023/09/04 10:17:43;;;;;;;2.55;2.13;;;;;;;;;;5022731;28;20614;-74
2023/09/04 10:20:11;;;;;;;2.38;2.20;;;;;;;;;;5022261;28;20206;-73
2023/09/04 10:22:42;;;;;;;2.45;2.28;;;;;;;;;;5034098;28;20294;-73
2023/09/04 10:25:13;;;;;;;2.90;2.45;;;;;;;;;;5024322;28;20579;-73
2023/09/04 10:27:42;;;;;;;2.97;2.55;;;;;;;;;;5020796;28;20195;-74
2023/09/04 10:30:10;;;;;;;2.22;2.13;;;;;;;;;;5015693;28;20203;-73
2023/09/04 10:32:37;;;;;;;2.38;2.25;;;;;;;;;;5035352;28;20207;-74
2023/09/04 10:35:07;;;;;;;2.35;2.25;;;;;;;;;;5019044;28;20196;-74
2023/09/04 10:37:37;;;;;;;2.67;2.40;;;;;;;;;;5036683;28;20575;-73
2023/09/04 10:40:06;;;;;;;2.75;2.33;;;;;;;;;;5019222;28;20225;-74
2023/09/04 10:42:33;;;;;;;2.55;2.35;;;;;;;;;;5024882;28;20506;-73
2023/09/04 10:45:11;;;;;;;2.40;2.20;;;;;;;;;;5018386;28;20206;-73
2023/09/04 10:47:49;;;;;;;2.15;1.90;;;;;;;;;;5039006;28;20218;-73
2023/09/04 10:50:27;;;;;;;2.80;2.13;;;;;;;;;;5023334;28;20203;-75
2023/09/04 10:52:55;;;;;;;2.33;2.05;;;;;;;;;;5015483;28;20371;-74
2023/09/04 10:55:24;;;;;;;2.13;1.90;;;;;;;;;;5015126;28;20643;-74
2023/09/04 10:57:55;;;;;;;2.47;2.28;;;;;;;;;;5020978;28;20316;-74
2023/09/04 11:00:32;;;;;;;2.83;2.33;;;;;;;;;;5019989;28;20410;-73
2023/09/04 11:03:14;;;;;;;2.72;2.10;;;;;;;;;;5019669;28;20708;-73
2023/09/04 11:06:00;;;;;;;3.40;2.50;;;;;;;;;;5020488;28;20199;-75
2023/09/04 11:08:28;;;;;;;2.35;2.15;;;;;;;;;;5018541;28;20207;-75
2023/09/04 11:11:03;;;;;;;3.97;2.28;;;;;;;;;;5021138;28;20231;-77
2023/09/04 11:13:34;;;;;;;2.47;2.05;;;;;;;;;;5013623;28;20230;-73
2023/09/04 11:16:06;;;;;;;2.85;2.25;;;;;;;;;;5015828;28;20740;-74
2023/09/04 11:18:35;;;;;;;2.88;2.28;;;;;;;;;;5024170;28;20219;-74
2023/09/04 11:21:03;;;;;;;3.10;2.20;;;;;;;;;;5020361;28;20226;-75
2023/09/04 11:23:34;;;;;;;2.30;2.10;;;;;;;;;;5019998;28;20218;-75
2023/09/04 11:26:02;;;;;;;2.92;2.03;;;;;;;;;;5021775;28;20202;-74
2023/09/04 11:28:30;;;;;;;3.15;2.33;;;;;;;;;;5038456;28;20585;-73
2023/09/04 11:30:59;;;;;;;2.95;2.20;;;;;;;;;;5023019;28;20314;-74
2023/09/04 11:33:29;;;;;;;2.40;2.20;;;;;;;;;;5016768;28;20207;-74
2023/09/04 11:36:01;;;;;;;3.13;2.50;;;;;;;;;;5033864;28;20203;-73
2023/09/04 11:38:29;;;;;;;2.60;2.40;;;;;;;;;;5024177;28;20223;-74
2023/09/04 11:40:57;;;;;;;2.20;2.10;;;;;;;;;;5014869;28;20697;-73
2023/09/04 11:43:25;;;;;;;2.85;2.35;;;;;;;;;;5020540;28;20203;-74
2023/09/04 11:45:55;;;;;;;2.30;2.10;;;;;;;;;;5024354;28;20199;-75
2023/09/04 11:48:27;;;;;;;3.80;2.40;;;;;;;;;;5022227;28;20639;-73
2023/09/04 11:50:54;;;;;;;2.50;2.30;;;;;;;;;;5023945;28;20237;-74
2023/09/04 11:53:22;;;;;;;2.30;2.10;;;;;;;;;;5014122;28;20618;-76
2023/09/04 11:55:53;;;;;;;2.63;2.42;;;;;;;;;;5013998;28;20230;-73
2023/09/04 11:58:22;;;;;;;3.33;2.22;;;;;;;;;;5017059;28;20223;-75
2023/09/04 12:00:50;;;;;;;2.20;2.10;;;;;;;;;;5015098;28;20221;-74
2023/09/04 12:03:17;;;;;;;2.08;1.88;;;;;;;;;;5021772;28;20207;-75
2023/09/04 12:05:46;;;;;;;2.70;2.50;;;;;;;;;;5016957;28;20200;-75
2023/09/04 12:08:13;;;;;;;2.30;2.10;;;;;;;;;;5015127;28;20203;-77
2023/09/04 12:10:42;;;;;;;3.47;2.20;;;;;;;;;;5020351;28;20238;-75
2023/09/04 12:13:09;;;;;;;3.67;2.20;;;;;;;;;;5022018;28;20215;-75
2023/09/04 12:15:38;;;;;;;1.95;1.85;;;;;;;;;;5018211;28;20207;-73
2023/09/04 12:18:06;;;;;;;2.13;2.03;;;;;;;;;;5022042;28;20203;-74
2023/09/04 12:20:37;;;;;;;2.47;2.28;;;;;;;;;;5022614;28;20223;-74
2023/09/04 12:23:04;;;;;;;2.30;2.20;;;;;;;;;;5021692;28;20198;-74
2023/09/04 12:25:37;;;;;;;3.28;2.30;;;;;;;;;;5033482;28;20230;-73
2023/09/04 12:28:12;;;;;;;4.68;2.40;;;;;;;;;;5014003;28;20203;-75
2023/09/04 12:30:40;;;;;;;3.13;2.35;;;;;;;;;;5016449;28;20248;-74
2023/09/04 12:33:12;;;;;;;3.90;2.45;;;;;;;;;;5040173;28;20206;-76
2023/09/04 12:35:41;;;;;;;2.30;1.92;;;;;;;;;;5020946;28;20646;-74
2023/09/04 12:38:08;;;;;;;2.10;2.00;;;;;;;;;;5023499;28;20203;-74
2023/09/04 12:40:35;;;;;;;2.55;2.35;;;;;;;;;;5017488;28;20241;-74
2023/09/04 12:43:03;;;;;;;2.85;2.65;;;;;;;;;;5019713;28;20203;-74
2023/09/04 12:45:30;;;;;;;3.13;2.70;;;;;;;;;;5014587;28;20677;-74
2023/09/04 12:47:59;;;;;;;2.15;2.00;;;;;;;;;;5018389;28;20209;-77
2023/09/04 12:50:27;;;;;;;2.45;2.25;;;;;;;;;;5017854;28;20705;-74
2023/09/04 12:52:54;;;;;;;2.72;1.90;;;;;;;;;;5021669;28;20204;-74
2023/09/04 12:55:24;;;;;;;2.63;2.38;;;;;;;;;;5012131;28;20210;-75
2023/09/04 12:57:59;;;;;;;2.72;2.30;;;;;;;;;;5019910;28;20604;-74
2023/09/04 13:00:27;;;;;;;2.28;2.15;;;;;;;;;;5018424;28;20237;-76
2023/09/04 13:02:54;;;;;;;2.30;2.20;;;;;;;;;;5020021;28;20195;-73
2023/09/04 13:05:22;;;;;;;2.80;2.10;;;;;;;;;;5021114;28;20199;-74
2023/09/04 13:07:50;;;;;;;2.67;2.10;;;;;;;;;;5023215;28;20226;-75
2023/09/04 13:10:20;;;;;;;2.80;2.20;;;;;;;;;;5019363;28;20227;-73
2023/09/04 13:12:47;;;;;;;4.45;2.28;;;;;;;;;;5021845;28;20673;-73
2023/09/04 13:15:15;;;;;;;2.70;2.50;;;;;;;;;;5020730;28;20210;-74
2023/09/04 13:17:43;;;;;;;2.45;2.25;;;;;;;;;;5022357;28;20214;-75
2023/09/04 13:20:14;;;;;;;2.22;2.10;;;;;;;;;;5022884;28;20258;-75
2023/09/04 13:22:41;;;;;;;2.40;2.20;;;;;;;;;;5023134;28;20206;-74
2023/09/04 13:25:09;;;;;;;2.90;2.40;;;;;;;;;;5022269;28;20203;-74
2023/09/04 13:27:37;;;;;;;2.50;2.40;;;;;;;;;;5022506;28;20579;-76
2023/09/04 13:30:05;;;;;;;2.47;2.20;;;;;;;;;;5020656;28;20670;-78
2023/09/04 13:32:32;;;;;;;4.05;2.08;;;;;;;;;;5020353;28;20211;-75
2023/09/04 13:34:59;;;;;;;2.20;2.10;;;;;;;;;;5027466;28;20615;-75
2023/09/04 13:37:28;;;;;;;2.30;2.05;;;;;;;;;;5019811;28;20207;-76
2023/09/04 13:39:56;;;;;;;2.85;2.40;;;;;;;;;;5016150;28;20223;-74
2023/09/04 13:42:23;;;;;;;2.78;2.05;;;;;;;;;;5015305;28;20229;-75
2023/09/04 13:44:50;;;;;;;2.40;2.20;;;;;;;;;;5030480;28;20206;-75
2023/09/04 13:47:24;;;;;;;2.65;2.45;;;;;;;;;;5014497;28;20499;-75
2023/09/04 13:49:53;;;;;;;2.50;2.30;;;;;;;;;;5034574;28;20276;-73
2023/09/04 13:52:21;;;;;;;2.33;2.15;;;;;;;;;;5027509;28;20219;-75
2023/09/04 13:54:49;;;;;;;2.58;2.17;;;;;;;;;;5023149;28;20209;-76
2023/09/04 13:57:16;;;;;;;2.15;1.92;;;;;;;;;;5019750;28;20262;-76
2023/09/04 13:59:43;;;;;;;2.42;2.22;;;;;;;;;;5024633;28;20242;-74
2023/09/04 14:02:10;;;;;;;2.33;2.13;;;;;;;;;;5028919;28;20262;-75
2023/09/04 14:04:38;;;;;;;2.45;2.10;;;;;;;;;;5018378;28;20207;-74
2023/09/04 14:07:05;;;;;;;2.75;2.35;;;;;;;;;;5016212;28;20207;-75
2023/09/04 14:09:32;;;;;;;2.38;2.17;;;;;;;;;;5019869;28;20234;-74
2023/09/04 14:12:01;;;;;;;2.70;2.22;;;;;;;;;;5019830;28;20229;-75
2023/09/04 14:14:29;;;;;;;3.28;2.35;;;;;;;;;;5021262;28;20306;-76
2023/09/04 14:16:56;;;;;;;2.90;2.70;;;;;;;;;;5024918;28;20554;-75
2023/09/04 14:19:23;;;;;;;2.15;1.95;;;;;;;;;;5031957;28;20222;-75
2023/09/04 14:21:52;;;;;;;2.42;2.22;;;;;;;;;;5024875;28;20215;-75
2023/09/04 14:24:20;;;;;;;2.30;2.20;;;;;;;;;;5025431;28;20208;-75
2023/09/04 14:26:47;;;;;;;2.45;2.25;;;;;;;;;;5022183;28;20569;-74
2023/09/04 14:29:14;;;;;;;3.67;2.53;;;;;;;;;;5023608;28;20214;-75
2023/09/04 14:31:42;;;;;;;5.05;2.45;;;;;;;;;;5014256;28;20230;-74
2023/09/04 14:34:09;;;;;;;2.78;2.58;;;;;;;;;;5018168;28;20289;-76
2023/09/04 14:36:36;;;;;;;2.63;2.42;;;;;;;;;;5028199;28;20227;-75
2023/09/04 14:39:04;;;;;;;2.33;2.13;;;;;;;;;;5021821;28;20298;-74
2023/09/04 14:41:32;;;;;;;2.55;2.35;;;;;;;;;;5019912;28;20227;-74
2023/09/04 14:43:59;;;;;;;4.57;2.38;;;;;;;;;;5017850;28;20203;-75
2023/09/04 14:46:27;;;;;;;2.45;2.25;;;;;;;;;;5013301;28;20204;-77
2023/09/04 14:48:56;;;;;;;2.60;2.33;;;;;;;;;;5023261;28;20199;-75
2023/09/04 14:51:23;;;;;;;2.55;2.35;;;;;;;;;;5017405;28;20229;-76